sensor_id;sensor_type;location;lat;lon;timestamp;P1;durP1;ratioP1;P2;durP2;ratioP2
44384;SDS011;30101;32.778;34.994;2022-12-11T00:02:28;42.30;;;23.20;;
44384;SDS011;30101;32.778;34.994;2022-12-11T00:07:47;42.08;;;23.40;;
44384;SDS011;30101;32.778;34.994;2022-12-11T00:12:50;41.47;;;22.38;;
44384;SDS011;30101;32.778;34.994;2022-12-11T00:17:54;41.22;;;22.85;;
44384;SDS011;30101;32.778;34.994;2022-12-11T00:22:57;40.42;;;23.13;;
44384;SDS011;30101;32.778;34.994;2022-12-11T00:28:01;41.90;;;23.35;;
44384;SDS011;30101;32.778;34.994;2022-12-11T00:48:14;40.95;;;21.75;;
44384;SDS011;30101;32.778;34.994;2022-12-11T00:53:17;40.65;;;21.08;;
44384;SDS011;30101;32.778;34.994;2022-12-11T00:58:21;35.40;;;20.15;;
44384;SDS011;30101;32.778;34.994;2022-12-11T01:03:26;42.80;;;20.65;;
44384;SDS011;30101;32.778;34.994;2022-12-11T01:13:40;47.88;;;20.55;;
44384;SDS011;30101;32.778;34.994;2022-12-11T01:18:45;41.85;;;21.73;;
44384;SDS011;30101;32.778;34.994;2022-12-11T01:23:49;38.78;;;19.48;;
44384;SDS011;30101;32.778;34.994;2022-12-11T01:28:53;38.67;;;21.42;;
44384;SDS011;30101;32.778;34.994;2022-12-11T01:49:12;39.00;;;20.60;;
44384;SDS011;30101;32.778;34.994;2022-12-11T01:54:18;44.70;;;21.33;;
44384;SDS011;30101;32.778;34.994;2022-12-11T01:59:25;42.70;;;22.45;;
44384;SDS011;30101;32.778;34.994;2022-12-11T02:04:32;47.35;;;22.95;;
44384;SDS011;30101;32.778;34.994;2022-12-11T02:09:37;47.58;;;22.73;;
44384;SDS011;30101;32.778;34.994;2022-12-11T02:25:51;43.60;;;21.48;;
44384;SDS011;30101;32.778;34.994;2022-12-11T02:31:37;40.28;;;20.77;;
44384;SDS011;30101;32.778;34.994;2022-12-11T02:36:46;41.38;;;21.67;;
44384;SDS011;30101;32.778;34.994;2022-12-11T02:41:54;44.78;;;21.90;;
44384;SDS011;30101;32.778;34.994;2022-12-11T02:47:00;35.90;;;20.35;;
44384;SDS011;30101;32.778;34.994;2022-12-11T02:52:05;40.78;;;20.05;;
44384;SDS011;30101;32.778;34.994;2022-12-11T02:57:17;41.72;;;21.55;;
44384;SDS011;30101;32.778;34.994;2022-12-11T03:02:33;46.67;;;21.10;;
44384;SDS011;30101;32.778;34.994;2022-12-11T03:07:38;49.33;;;22.33;;
44384;SDS011;30101;32.778;34.994;2022-12-11T03:12:44;44.75;;;23.13;;
44384;SDS011;30101;32.778;34.994;2022-12-11T03:23:18;45.92;;;22.55;;
44384;SDS011;30101;32.778;34.994;2022-12-11T03:28:38;47.33;;;23.23;;
44384;SDS011;30101;32.778;34.994;2022-12-11T03:33:47;42.83;;;22.90;;
44384;SDS011;30101;32.778;34.994;2022-12-11T03:38:56;54.30;;;23.60;;
44384;SDS011;30101;32.778;34.994;2022-12-11T03:44:03;51.67;;;24.80;;
44384;SDS011;30101;32.778;34.994;2022-12-11T03:49:14;57.28;;;26.05;;
44384;SDS011;30101;32.778;34.994;2022-12-11T03:54:20;55.95;;;26.63;;
44384;SDS011;30101;32.778;34.994;2022-12-11T03:59:26;54.30;;;24.48;;
44384;SDS011;30101;32.778;34.994;2022-12-11T04:04:33;49.25;;;25.38;;
44384;SDS011;30101;32.778;34.994;2022-12-11T04:09:49;59.33;;;24.50;;
44384;SDS011;30101;32.778;34.994;2022-12-11T04:14:55;49.65;;;24.50;;
44384;SDS011;30101;32.778;34.994;2022-12-11T04:25:02;47.05;;;23.52;;
44384;SDS011;30101;32.778;34.994;2022-12-11T04:30:10;53.40;;;23.92;;
44384;SDS011;30101;32.778;34.994;2022-12-11T04:35:16;55.70;;;24.80;;
44384;SDS011;30101;32.778;34.994;2022-12-11T04:40:21;47.45;;;23.77;;
44384;SDS011;30101;32.778;34.994;2022-12-11T04:45:25;57.28;;;24.80;;
44384;SDS011;30101;32.778;34.994;2022-12-11T04:55:31;41.75;;;21.35;;
44384;SDS011;30101;32.778;34.994;2022-12-11T05:10:41;42.15;;;21.30;;
44384;SDS011;30101;32.778;34.994;2022-12-11T05:15:51;52.20;;;24.40;;
44384;SDS011;30101;32.778;34.994;2022-12-11T05:25:59;47.28;;;21.52;;
44384;SDS011;30101;32.778;34.994;2022-12-11T05:31:06;48.75;;;22.65;;
44384;SDS011;30101;32.778;34.994;2022-12-11T05:36:14;50.92;;;22.73;;
44384;SDS011;30101;32.778;34.994;2022-12-11T05:41:21;50.53;;;22.73;;
44384;SDS011;30101;32.778;34.994;2022-12-11T05:46:27;48.28;;;22.90;;
44384;SDS011;30101;32.778;34.994;2022-12-11T05:51:32;46.17;;;21.33;;
44384;SDS011;30101;32.778;34.994;2022-12-11T05:56:36;49.92;;;21.42;;
44384;SDS011;30101;32.778;34.994;2022-12-11T06:01:44;45.13;;;22.33;;
44384;SDS011;30101;32.778;34.994;2022-12-11T06:07:05;49.92;;;21.63;;
44384;SDS011;30101;32.778;34.994;2022-12-11T06:12:08;51.90;;;23.55;;
44384;SDS011;30101;32.778;34.994;2022-12-11T06:22:14;46.30;;;20.50;;
44384;SDS011;30101;32.778;34.994;2022-12-11T06:27:18;46.33;;;21.70;;
44384;SDS011;30101;32.778;34.994;2022-12-11T06:32:22;41.72;;;21.48;;
44384;SDS011;30101;32.778;34.994;2022-12-11T06:37:25;40.22;;;20.83;;
44384;SDS011;30101;32.778;34.994;2022-12-11T06:47:32;48.83;;;21.35;;
44384;SDS011;30101;32.778;34.994;2022-12-11T06:52:36;36.47;;;19.83;;
44384;SDS011;30101;32.778;34.994;2022-12-11T06:57:39;38.67;;;21.20;;
44384;SDS011;30101;32.778;34.994;2022-12-11T07:02:43;36.97;;;20.55;;
44384;SDS011;30101;32.778;34.994;2022-12-11T07:07:46;34.15;;;20.52;;
44384;SDS011;30101;32.778;34.994;2022-12-11T07:12:53;37.80;;;20.08;;
44384;SDS011;30101;32.778;34.994;2022-12-11T07:17:57;45.95;;;21.38;;
44384;SDS011;30101;32.778;34.994;2022-12-11T07:23:01;40.38;;;21.67;;
44384;SDS011;30101;32.778;34.994;2022-12-11T07:28:05;40.58;;;20.90;;
44384;SDS011;30101;32.778;34.994;2022-12-11T07:33:14;41.03;;;21.42;;
44384;SDS011;30101;32.778;34.994;2022-12-11T07:38:19;37.42;;;20.17;;
44384;SDS011;30101;32.778;34.994;2022-12-11T07:43:23;39.65;;;19.52;;
44384;SDS011;30101;32.778;34.994;2022-12-11T07:48:26;39.83;;;21.08;;
44384;SDS011;30101;32.778;34.994;2022-12-11T07:53:31;39.78;;;21.02;;
44384;SDS011;30101;32.778;34.994;2022-12-11T07:58:35;36.05;;;20.83;;
44384;SDS011;30101;32.778;34.994;2022-12-11T08:03:38;37.35;;;20.75;;
44384;SDS011;30101;32.778;34.994;2022-12-11T08:08:42;44.42;;;22.48;;
44384;SDS011;30101;32.778;34.994;2022-12-11T08:13:45;40.20;;;21.17;;
44384;SDS011;30101;32.778;34.994;2022-12-11T08:18:49;36.22;;;19.90;;
44384;SDS011;30101;32.778;34.994;2022-12-11T08:23:53;40.90;;;21.10;;
44384;SDS011;30101;32.778;34.994;2022-12-11T08:29:03;41.60;;;21.67;;
44384;SDS011;30101;32.778;34.994;2022-12-11T08:34:07;41.63;;;21.20;;
44384;SDS011;30101;32.778;34.994;2022-12-11T08:39:11;40.80;;;20.80;;
44384;SDS011;30101;32.778;34.994;2022-12-11T08:44:14;35.75;;;19.60;;
44384;SDS011;30101;32.778;34.994;2022-12-11T08:49:19;36.10;;;20.67;;
44384;SDS011;30101;32.778;34.994;2022-12-11T08:54:22;37.67;;;20.27;;
44384;SDS011;30101;32.778;34.994;2022-12-11T09:04:29;34.40;;;18.75;;
44384;SDS011;30101;32.778;34.994;2022-12-11T09:09:33;35.53;;;18.75;;
44384;SDS011;30101;32.778;34.994;2022-12-11T09:14:36;32.53;;;19.25;;
44384;SDS011;30101;32.778;34.994;2022-12-11T09:24:44;37.25;;;19.30;;
44384;SDS011;30101;32.778;34.994;2022-12-11T09:29:48;38.30;;;19.35;;
44384;SDS011;30101;32.778;34.994;2022-12-11T09:34:52;32.22;;;19.17;;
44384;SDS011;30101;32.778;34.994;2022-12-11T09:39:56;33.33;;;18.48;;
44384;SDS011;30101;32.778;34.994;2022-12-11T09:45:09;39.95;;;19.67;;
44384;SDS011;30101;32.778;34.994;2022-12-11T09:50:24;33.03;;;19.45;;
44384;SDS011;30101;32.778;34.994;2022-12-11T09:55:34;30.27;;;18.73;;
44384;SDS011;30101;32.778;34.994;2022-12-11T10:05:54;34.88;;;19.02;;
44384;SDS011;30101;32.778;34.994;2022-12-11T10:11:21;33.40;;;18.70;;
44384;SDS011;30101;32.778;34.994;2022-12-11T10:16:38;33.42;;;18.45;;
44384;SDS011;30101;32.778;34.994;2022-12-11T10:21:56;32.78;;;18.48;;
44384;SDS011;30101;32.778;34.994;2022-12-11T10:27:09;36.97;;;19.20;;
44384;SDS011;30101;32.778;34.994;2022-12-11T10:32:23;31.45;;;18.30;;
44384;SDS011;30101;32.778;34.994;2022-12-11T10:37:34;36.20;;;18.27;;
44384;SDS011;30101;32.778;34.994;2022-12-11T10:42:57;36.40;;;17.88;;
44384;SDS011;30101;32.778;34.994;2022-12-11T10:48:01;34.55;;;18.08;;
44384;SDS011;30101;32.778;34.994;2022-12-11T10:53:20;31.35;;;16.52;;
44384;SDS011;30101;32.778;34.994;2022-12-11T11:03:29;29.27;;;16.15;;
44384;SDS011;30101;32.778;34.994;2022-12-11T11:08:42;29.75;;;16.80;;
44384;SDS011;30101;32.778;34.994;2022-12-11T11:13:50;28.52;;;16.05;;
44384;SDS011;30101;32.778;34.994;2022-12-11T11:18:54;28.42;;;16.40;;
44384;SDS011;30101;32.778;34.994;2022-12-11T11:23:59;27.63;;;15.77;;
44384;SDS011;30101;32.778;34.994;2022-12-11T11:29:04;23.17;;;15.30;;
44384;SDS011;30101;32.778;34.994;2022-12-11T11:34:13;36.88;;;15.73;;
44384;SDS011;30101;32.778;34.994;2022-12-11T11:39:32;29.23;;;14.65;;
44384;SDS011;30101;32.778;34.994;2022-12-11T11:44:48;25.42;;;14.30;;
44384;SDS011;30101;32.778;34.994;2022-12-11T12:00:40;27.95;;;13.85;;
44384;SDS011;30101;32.778;34.994;2022-12-11T12:05:47;26.20;;;14.48;;
44384;SDS011;30101;32.778;34.994;2022-12-11T12:21:55;27.15;;;13.30;;
44384;SDS011;30101;32.778;34.994;2022-12-11T12:43:47;21.77;;;11.48;;
44384;SDS011;30101;32.778;34.994;2022-12-11T12:48:55;29.02;;;12.15;;
44384;SDS011;30101;32.778;34.994;2022-12-11T12:54:01;22.58;;;12.52;;
44384;SDS011;30101;32.778;34.994;2022-12-11T12:59:25;19.98;;;11.18;;
44384;SDS011;30101;32.778;34.994;2022-12-11T13:10:02;20.73;;;10.55;;
44384;SDS011;30101;32.778;34.994;2022-12-11T13:15:25;27.20;;;11.38;;
44384;SDS011;30101;32.778;34.994;2022-12-11T13:21:02;24.83;;;11.68;;
44384;SDS011;30101;32.778;34.994;2022-12-11T13:26:51;20.77;;;10.55;;
44384;SDS011;30101;32.778;34.994;2022-12-11T13:32:19;19.42;;;10.30;;
44384;SDS011;30101;32.778;34.994;2022-12-11T13:37:44;24.98;;;11.00;;
44384;SDS011;30101;32.778;34.994;2022-12-11T13:48:27;20.85;;;9.82;;
44384;SDS011;30101;32.778;34.994;2022-12-11T13:54:03;24.60;;;9.27;;
44384;SDS011;30101;32.778;34.994;2022-12-11T13:59:48;18.63;;;10.52;;
44384;SDS011;30101;32.778;34.994;2022-12-11T14:05:21;19.23;;;7.40;;
44384;SDS011;30101;32.778;34.994;2022-12-11T14:10:44;20.75;;;10.60;;
44384;SDS011;30101;32.778;34.994;2022-12-11T14:15:56;20.88;;;10.52;;
44384;SDS011;30101;32.778;34.994;2022-12-11T14:21:00;21.70;;;11.05;;
44384;SDS011;30101;32.778;34.994;2022-12-11T14:26:19;22.27;;;10.45;;
44384;SDS011;30101;32.778;34.994;2022-12-11T14:31:30;22.30;;;10.13;;
44384;SDS011;30101;32.778;34.994;2022-12-11T14:36:39;20.05;;;10.85;;
44384;SDS011;30101;32.778;34.994;2022-12-11T14:41:49;19.77;;;11.30;;
44384;SDS011;30101;32.778;34.994;2022-12-11T14:47:04;19.63;;;11.05;;
44384;SDS011;30101;32.778;34.994;2022-12-11T14:52:23;25.52;;;11.15;;
44384;SDS011;30101;32.778;34.994;2022-12-11T14:57:32;22.45;;;10.70;;
44384;SDS011;30101;32.778;34.994;2022-12-11T15:02:36;24.00;;;11.07;;
44384;SDS011;30101;32.778;34.994;2022-12-11T15:07:40;19.65;;;11.63;;
44384;SDS011;30101;32.778;34.994;2022-12-11T15:12:50;19.42;;;10.90;;
44384;SDS011;30101;32.778;34.994;2022-12-11T15:18:19;22.00;;;10.82;;
44384;SDS011;30101;32.778;34.994;2022-12-11T15:23:46;21.15;;;11.15;;
44384;SDS011;30101;32.778;34.994;2022-12-11T15:28:58;24.30;;;11.18;;
44384;SDS011;30101;32.778;34.994;2022-12-11T15:34:02;19.20;;;11.10;;
44384;SDS011;30101;32.778;34.994;2022-12-11T15:39:23;18.75;;;11.63;;
44384;SDS011;30101;32.778;34.994;2022-12-11T15:44:26;19.98;;;12.13;;
44384;SDS011;30101;32.778;34.994;2022-12-11T15:49:31;22.08;;;12.68;;
44384;SDS011;30101;32.778;34.994;2022-12-11T15:54:34;30.52;;;13.65;;
44384;SDS011;30101;32.778;34.994;2022-12-11T15:59:38;26.85;;;14.30;;
44384;SDS011;30101;32.778;34.994;2022-12-11T16:04:41;25.33;;;14.07;;
44384;SDS011;30101;32.778;34.994;2022-12-11T16:09:45;32.45;;;14.73;;
44384;SDS011;30101;32.778;34.994;2022-12-11T16:14:49;30.08;;;14.45;;
44384;SDS011;30101;32.778;34.994;2022-12-11T16:19:52;24.95;;;15.55;;
44384;SDS011;30101;32.778;34.994;2022-12-11T16:24:57;22.95;;;14.75;;
44384;SDS011;30101;32.778;34.994;2022-12-11T16:30:06;30.15;;;15.18;;
44384;SDS011;30101;32.778;34.994;2022-12-11T16:35:29;34.72;;;16.48;;
44384;SDS011;30101;32.778;34.994;2022-12-11T16:40:33;26.52;;;15.02;;
44384;SDS011;30101;32.778;34.994;2022-12-11T16:45:36;30.27;;;15.85;;
44384;SDS011;30101;32.778;34.994;2022-12-11T16:50:40;28.38;;;17.55;;
44384;SDS011;30101;32.778;34.994;2022-12-11T16:55:44;31.27;;;16.40;;
44384;SDS011;30101;32.778;34.994;2022-12-11T17:00:48;32.38;;;17.98;;
44384;SDS011;30101;32.778;34.994;2022-12-11T17:05:52;29.27;;;16.27;;
44384;SDS011;30101;32.778;34.994;2022-12-11T17:10:55;28.90;;;15.00;;
44384;SDS011;30101;32.778;34.994;2022-12-11T17:15:58;28.05;;;14.77;;
44384;SDS011;30101;32.778;34.994;2022-12-11T17:21:08;28.70;;;14.20;;
44384;SDS011;30101;32.778;34.994;2022-12-11T17:26:22;28.95;;;14.02;;
44384;SDS011;30101;32.778;34.994;2022-12-11T17:31:45;24.33;;;14.48;;
44384;SDS011;30101;32.778;34.994;2022-12-11T17:36:48;30.55;;;13.63;;
44384;SDS011;30101;32.778;34.994;2022-12-11T17:41:58;22.83;;;13.85;;
44384;SDS011;30101;32.778;34.994;2022-12-11T17:47:20;21.95;;;14.05;;
44384;SDS011;30101;32.778;34.994;2022-12-11T17:52:23;22.15;;;13.75;;
44384;SDS011;30101;32.778;34.994;2022-12-11T17:57:34;27.52;;;14.75;;
44384;SDS011;30101;32.778;34.994;2022-12-11T18:02:37;29.70;;;13.77;;
44384;SDS011;30101;32.778;34.994;2022-12-11T18:07:41;28.50;;;14.13;;
44384;SDS011;30101;32.778;34.994;2022-12-11T18:12:49;23.20;;;13.45;;
44384;SDS011;30101;32.778;34.994;2022-12-11T18:18:16;24.02;;;13.27;;
44384;SDS011;30101;32.778;34.994;2022-12-11T18:23:39;26.80;;;14.75;;
44384;SDS011;30101;32.778;34.994;2022-12-11T18:28:42;23.05;;;13.43;;
44384;SDS011;30101;32.778;34.994;2022-12-11T18:33:46;27.88;;;13.82;;
44384;SDS011;30101;32.778;34.994;2022-12-11T18:38:53;27.15;;;13.07;;
44384;SDS011;30101;32.778;34.994;2022-12-11T18:44:03;21.77;;;13.52;;
44384;SDS011;30101;32.778;34.994;2022-12-11T18:49:25;20.00;;;13.07;;
44384;SDS011;30101;32.778;34.994;2022-12-11T18:54:29;23.95;;;13.52;;
44384;SDS011;30101;32.778;34.994;2022-12-11T18:59:44;24.02;;;13.05;;
44384;SDS011;30101;32.778;34.994;2022-12-11T19:05:06;22.13;;;13.23;;
44384;SDS011;30101;32.778;34.994;2022-12-11T19:10:09;23.85;;;13.82;;
44384;SDS011;30101;32.778;34.994;2022-12-11T19:15:13;22.17;;;12.32;;
44384;SDS011;30101;32.778;34.994;2022-12-11T19:20:23;21.27;;;12.57;;
44384;SDS011;30101;32.778;34.994;2022-12-11T19:25:47;27.05;;;13.93;;
44384;SDS011;30101;32.778;34.994;2022-12-11T19:30:55;26.05;;;13.25;;
44384;SDS011;30101;32.778;34.994;2022-12-11T19:36:19;24.05;;;13.30;;
44384;SDS011;30101;32.778;34.994;2022-12-11T19:41:24;23.13;;;13.85;;
44384;SDS011;30101;32.778;34.994;2022-12-11T19:46:31;25.02;;;13.13;;
44384;SDS011;30101;32.778;34.994;2022-12-11T19:51:36;19.20;;;12.95;;
44384;SDS011;30101;32.778;34.994;2022-12-11T19:56:45;22.63;;;13.07;;
44384;SDS011;30101;32.778;34.994;2022-12-11T20:02:09;21.38;;;13.07;;
44384;SDS011;30101;32.778;34.994;2022-12-11T20:07:14;20.92;;;12.88;;
44384;SDS011;30101;32.778;34.994;2022-12-11T20:12:17;21.35;;;13.57;;
44384;SDS011;30101;32.778;34.994;2022-12-11T20:17:21;23.10;;;13.93;;
44384;SDS011;30101;32.778;34.994;2022-12-11T20:22:24;23.65;;;12.60;;
44384;SDS011;30101;32.778;34.994;2022-12-11T20:27:28;22.05;;;12.43;;
44384;SDS011;30101;32.778;34.994;2022-12-11T20:32:31;24.13;;;13.32;;
44384;SDS011;30101;32.778;34.994;2022-12-11T20:37:40;24.80;;;14.60;;
44384;SDS011;30101;32.778;34.994;2022-12-11T20:43:05;25.55;;;14.73;;
44384;SDS011;30101;32.778;34.994;2022-12-11T20:48:09;24.65;;;13.82;;
44384;SDS011;30101;32.778;34.994;2022-12-11T20:53:13;26.85;;;14.20;;
44384;SDS011;30101;32.778;34.994;2022-12-11T20:58:17;21.90;;;14.23;;
44384;SDS011;30101;32.778;34.994;2022-12-11T21:03:25;27.17;;;13.82;;
44384;SDS011;30101;32.778;34.994;2022-12-11T21:08:52;30.58;;;14.18;;
44384;SDS011;30101;32.778;34.994;2022-12-11T21:13:56;26.40;;;13.75;;
44384;SDS011;30101;32.778;34.994;2022-12-11T21:19:00;25.58;;;13.40;;
44384;SDS011;30101;32.778;34.994;2022-12-11T21:24:05;24.30;;;12.88;;
44384;SDS011;30101;32.778;34.994;2022-12-11T21:29:09;22.00;;;13.52;;
44384;SDS011;30101;32.778;34.994;2022-12-11T21:34:13;22.27;;;13.02;;
44384;SDS011;30101;32.778;34.994;2022-12-11T21:39:16;21.60;;;12.10;;
44384;SDS011;30101;32.778;34.994;2022-12-11T21:44:20;23.60;;;13.90;;
44384;SDS011;30101;32.778;34.994;2022-12-11T21:49:44;25.10;;;13.95;;
44384;SDS011;30101;32.778;34.994;2022-12-11T21:54:47;22.85;;;13.27;;
44384;SDS011;30101;32.778;34.994;2022-12-11T21:59:50;27.42;;;14.82;;
44384;SDS011;30101;32.778;34.994;2022-12-11T22:04:54;25.98;;;13.65;;
44384;SDS011;30101;32.778;34.994;2022-12-11T22:10:01;23.63;;;12.75;;
44384;SDS011;30101;32.778;34.994;2022-12-11T22:15:24;25.33;;;14.05;;
44384;SDS011;30101;32.778;34.994;2022-12-11T22:20:28;22.33;;;13.25;;
44384;SDS011;30101;32.778;34.994;2022-12-11T22:35:38;23.90;;;14.27;;
44384;SDS011;30101;32.778;34.994;2022-12-11T22:40:42;25.15;;;14.88;;
44384;SDS011;30101;32.778;34.994;2022-12-11T22:45:49;24.13;;;15.50;;
44384;SDS011;30101;32.778;34.994;2022-12-11T22:51:08;30.83;;;15.17;;
44384;SDS011;30101;32.778;34.994;2022-12-11T22:56:15;23.88;;;13.80;;
44384;SDS011;30101;32.778;34.994;2022-12-11T23:01:33;24.83;;;13.60;;
44384;SDS011;30101;32.778;34.994;2022-12-11T23:06:40;25.90;;;15.15;;
44384;SDS011;30101;32.778;34.994;2022-12-11T23:11:54;27.10;;;13.95;;
44384;SDS011;30101;32.778;34.994;2022-12-11T23:17:00;23.58;;;14.15;;
44384;SDS011;30101;32.778;34.994;2022-12-11T23:22:03;23.95;;;13.63;;
44384;SDS011;30101;32.778;34.994;2022-12-11T23:27:07;25.15;;;14.80;;
44384;SDS011;30101;32.778;34.994;2022-12-11T23:32:13;25.08;;;14.38;;
44384;SDS011;30101;32.778;34.994;2022-12-11T23:37:17;26.77;;;13.98;;
44384;SDS011;30101;32.778;34.994;2022-12-11T23:42:21;28.20;;;14.15;;
44384;SDS011;30101;32.778;34.994;2022-12-11T23:47:25;28.13;;;14.60;;
44384;SDS011;30101;32.778;34.994;2022-12-11T23:57:32;22.25;;;13.38;;
